sensor_id;sensor_type;location;lat;lon;timestamp;pressure;altitude;pressure_sealevel;temperature;humidity
25430;BME280;13360;48.152;-1.788;2024-01-30T00:00:00;103675.03;;;15.07;100.00
25430;BME280;13360;48.152;-1.788;2024-01-30T00:02:26;103672.25;;;15.07;100.00
25430;BME280;13360;48.152;-1.788;2024-01-30T00:04:52;103661.97;;;15.08;100.00
25430;BME280;13360;48.152;-1.788;2024-01-30T00:07:18;103666.16;;;15.10;100.00
25430;BME280;13360;48.152;-1.788;2024-01-30T00:09:46;103677.31;;;15.10;100.00
25430;BME280;13360;48.152;-1.788;2024-01-30T00:12:12;103680.09;;;15.10;100.00
25430;BME280;13360;48.152;-1.788;2024-01-30T00:14:38;103667.84;;;15.11;100.00
25430;BME280;13360;48.152;-1.788;2024-01-30T00:17:06;103667.00;;;15.11;100.00
25430;BME280;13360;48.152;-1.788;2024-01-30T00:19:32;103674.25;;;15.12;100.00
25430;BME280;13360;48.152;-1.788;2024-01-30T00:21:58;103668.69;;;15.12;100.00
25430;BME280;13360;48.152;-1.788;2024-01-30T00:24:25;103659.75;;;15.10;100.00
25430;BME280;13360;48.152;-1.788;2024-01-30T00:26:51;103661.97;;;15.08;100.00
25430;BME280;13360;48.152;-1.788;2024-01-30T00:29:17;103654.66;;;15.02;100.00
25430;BME280;13360;48.152;-1.788;2024-01-30T00:31:45;103669.41;;;15.02;100.00
25430;BME280;13360;48.152;-1.788;2024-01-30T00:34:11;103679.69;;;15.02;100.00
25430;BME280;13360;48.152;-1.788;2024-01-30T00:36:37;103683.81;;;14.99;100.00
25430;BME280;13360;48.152;-1.788;2024-01-30T00:39:03;103695.81;;;15.00;100.00
25430;BME280;13360;48.152;-1.788;2024-01-30T00:41:32;103684.91;;;14.98;100.00
25430;BME280;13360;48.152;-1.788;2024-01-30T00:43:58;103684.06;;;14.98;100.00
25430;BME280;13360;48.152;-1.788;2024-01-30T00:46:24;103667.88;;;14.94;100.00
25430;BME280;13360;48.152;-1.788;2024-01-30T00:48:50;103688.47;;;14.93;100.00
25430;BME280;13360;48.152;-1.788;2024-01-30T00:51:16;103685.69;;;14.93;100.00
25430;BME280;13360;48.152;-1.788;2024-01-30T00:53:42;103682.06;;;14.93;100.00
25430;BME280;13360;48.152;-1.788;2024-01-30T00:56:08;103691.25;;;14.93;100.00
25430;BME280;13360;48.152;-1.788;2024-01-30T00:58:34;103694.88;;;14.94;100.00
25430;BME280;13360;48.152;-1.788;2024-01-30T01:01:00;103702.13;;;14.95;100.00
25430;BME280;13360;48.152;-1.788;2024-01-30T01:03:27;103723.88;;;14.98;100.00
25430;BME280;13360;48.152;-1.788;2024-01-30T01:05:53;103733.91;;;14.99;100.00
25430;BME280;13360;48.152;-1.788;2024-01-30T01:08:19;103737.31;;;15.01;100.00
25430;BME280;13360;48.152;-1.788;2024-01-30T01:10:45;103743.13;;;15.00;100.00
25430;BME280;13360;48.152;-1.788;2024-01-30T01:13:11;103750.63;;;14.99;100.00
25430;BME280;13360;48.152;-1.788;2024-01-30T01:15:37;103760.06;;;14.98;100.00
25430;BME280;13360;48.152;-1.788;2024-01-30T01:18:03;103759.84;;;15.00;100.00
25430;BME280;13360;48.152;-1.788;2024-01-30T01:20:30;103759.84;;;15.00;100.00
25430;BME280;13360;48.152;-1.788;2024-01-30T01:22:56;103769.03;;;15.00;100.00
25430;BME280;13360;48.152;-1.788;2024-01-30T01:25:22;103769.03;;;15.00;100.00
25430;BME280;13360;48.152;-1.788;2024-01-30T01:27:48;103763.47;;;15.00;100.00
25430;BME280;13360;48.152;-1.788;2024-01-30T01:30:17;103762.00;;;14.98;100.00
25430;BME280;13360;48.152;-1.788;2024-01-30T01:32:50;103760.56;;;14.95;100.00
25430;BME280;13360;48.152;-1.788;2024-01-30T01:35:23;103739.66;;;14.92;100.00
25430;BME280;13360;48.152;-1.788;2024-01-30T01:38:06;103736.03;;;14.92;100.00
25430;BME280;13360;48.152;-1.788;2024-01-30T01:40:32;103730.97;;;14.89;100.00
25430;BME280;13360;48.152;-1.788;2024-01-30T01:42:58;103699.44;;;14.83;100.00
25430;BME280;13360;48.152;-1.788;2024-01-30T01:45:24;103688.56;;;14.82;100.00
25430;BME280;13360;48.152;-1.788;2024-01-30T01:47:50;103667.41;;;14.81;100.00
25430;BME280;13360;48.152;-1.788;2024-01-30T01:50:17;103661.84;;;14.81;100.00
25430;BME280;13360;48.152;-1.788;2024-01-30T01:52:44;103641.78;;;14.79;100.00
25430;BME280;13360;48.152;-1.788;2024-01-30T01:55:11;103636.81;;;14.81;100.00
25430;BME280;13360;48.152;-1.788;2024-01-30T01:57:37;103619.75;;;14.77;100.00
25430;BME280;13360;48.152;-1.788;2024-01-30T02:00:04;103618.66;;;14.78;100.00
25430;BME280;13360;48.152;-1.788;2024-01-30T02:02:31;103594.97;;;14.76;100.00
25430;BME280;13360;48.152;-1.788;2024-01-30T02:05:00;103594.13;;;14.75;100.00
25430;BME280;13360;48.152;-1.788;2024-01-30T02:07:27;103586.34;;;14.77;100.00
25430;BME280;13360;48.152;-1.788;2024-01-30T02:09:54;103575.50;;;14.76;100.00
25430;BME280;13360;48.152;-1.788;2024-01-30T02:12:20;103571.59;;;14.77;100.00
25430;BME280;13360;48.152;-1.788;2024-01-30T02:14:46;103563.25;;;14.77;100.00
25430;BME280;13360;48.152;-1.788;2024-01-30T02:17:12;103545.13;;;14.74;100.00
25430;BME280;13360;48.152;-1.788;2024-01-30T02:19:38;103531.50;;;14.73;100.00
25430;BME280;13360;48.152;-1.788;2024-01-30T02:22:04;103529.81;;;14.72;100.00
25430;BME280;13360;48.152;-1.788;2024-01-30T02:24:30;103520.88;;;14.70;100.00
25430;BME280;13360;48.152;-1.788;2024-01-30T02:26:56;103520.88;;;14.70;100.00
25430;BME280;13360;48.152;-1.788;2024-01-30T02:29:22;103509.75;;;14.70;100.00
25430;BME280;13360;48.152;-1.788;2024-01-30T02:31:48;103501.66;;;14.68;100.00
25430;BME280;13360;48.152;-1.788;2024-01-30T02:34:14;103504.19;;;14.70;100.00
25430;BME280;13360;48.152;-1.788;2024-01-30T02:36:43;103504.19;;;14.70;100.00
25430;BME280;13360;48.152;-1.788;2024-01-30T02:39:09;103508.66;;;14.71;100.00
25430;BME280;13360;48.152;-1.788;2024-01-30T02:41:35;103505.88;;;14.71;100.00
25430;BME280;13360;48.152;-1.788;2024-01-30T02:44:02;103490.28;;;14.70;100.00
25430;BME280;13360;48.152;-1.788;2024-01-30T02:46:28;103490.00;;;14.71;100.00
25430;BME280;13360;48.152;-1.788;2024-01-30T02:48:54;103478.88;;;14.71;100.00
25430;BME280;13360;48.152;-1.788;2024-01-30T02:51:21;103471.91;;;14.69;100.00
25430;BME280;13360;48.152;-1.788;2024-01-30T02:53:47;103466.06;;;14.70;100.00
25430;BME280;13360;48.152;-1.788;2024-01-30T02:56:13;103462.72;;;14.68;100.00
25430;BME280;13360;48.152;-1.788;2024-01-30T02:58:39;103442.66;;;14.66;100.00
25430;BME280;13360;48.152;-1.788;2024-01-30T03:01:06;103429.00;;;14.64;100.00
25430;BME280;13360;48.152;-1.788;2024-01-30T03:03:32;103406.19;;;14.62;100.00
25430;BME280;13360;48.152;-1.788;2024-01-30T03:06:00;103400.88;;;14.61;100.00
25430;BME280;13360;48.152;-1.788;2024-01-30T03:08:26;103386.97;;;14.61;100.00
25430;BME280;13360;48.152;-1.788;2024-01-30T03:10:52;103379.47;;;14.61;100.00
25430;BME280;13360;48.152;-1.788;2024-01-30T03:13:18;103369.19;;;14.62;100.00
25430;BME280;13360;48.152;-1.788;2024-01-30T03:15:44;103356.13;;;14.62;100.00
25430;BME280;13360;48.152;-1.788;2024-01-30T03:18:10;103358.91;;;14.62;100.00
25430;BME280;13360;48.152;-1.788;2024-01-30T03:20:36;103349.44;;;14.63;100.00
25430;BME280;13360;48.152;-1.788;2024-01-30T03:23:02;103345.56;;;14.64;100.00
25430;BME280;13360;48.152;-1.788;2024-01-30T03:25:28;103336.63;;;14.62;100.00
25430;BME280;13360;48.152;-1.788;2024-01-30T03:27:54;103324.66;;;14.62;100.00
25430;BME280;13360;48.152;-1.788;2024-01-30T03:30:20;103312.72;;;14.61;100.00
25430;BME280;13360;48.152;-1.788;2024-01-30T03:32:47;103297.69;;;14.62;100.00
25430;BME280;13360;48.152;-1.788;2024-01-30T03:35:14;103308.81;;;14.62;100.00
25430;BME280;13360;48.152;-1.788;2024-01-30T03:37:40;103292.13;;;14.62;100.00
25430;BME280;13360;48.152;-1.788;2024-01-30T03:40:06;103282.09;;;14.61;100.00
25430;BME280;13360;48.152;-1.788;2024-01-30T03:42:33;103277.38;;;14.62;100.00
25430;BME280;13360;48.152;-1.788;2024-01-30T03:44:59;103266.78;;;14.59;100.00
25430;BME280;13360;48.152;-1.788;2024-01-30T03:47:25;103263.75;;;14.60;100.00
25430;BME280;13360;48.152;-1.788;2024-01-30T03:49:51;103249.50;;;14.57;100.00
25430;BME280;13360;48.152;-1.788;2024-01-30T03:52:17;103232.50;;;14.53;100.00
25430;BME280;13360;48.152;-1.788;2024-01-30T03:54:43;103233.88;;;14.51;100.00
25430;BME280;13360;48.152;-1.788;2024-01-30T03:57:09;103225.78;;;14.49;100.00
25430;BME280;13360;48.152;-1.788;2024-01-30T03:59:36;103209.28;;;14.43;100.00
25430;BME280;13360;48.152;-1.788;2024-01-30T04:02:02;103209.28;;;14.43;100.00
25430;BME280;13360;48.152;-1.788;2024-01-30T04:04:29;103203.75;;;14.43;100.00
25430;BME280;13360;48.152;-1.788;2024-01-30T04:06:55;103193.97;;;14.40;100.00
25430;BME280;13360;48.152;-1.788;2024-01-30T04:09:21;103187.31;;;14.41;100.00
25430;BME280;13360;48.152;-1.788;2024-01-30T04:11:47;103176.47;;;14.40;100.00
25430;BME280;13360;48.152;-1.788;2024-01-30T04:14:14;103159.78;;;14.40;100.00
25430;BME280;13360;48.152;-1.788;2024-01-30T04:16:40;103145.03;;;14.39;100.00
25430;BME280;13360;48.152;-1.788;2024-01-30T04:19:06;103137.19;;;14.36;100.00
25430;BME280;13360;48.152;-1.788;2024-01-30T04:21:32;103139.41;;;14.34;100.00
25430;BME280;13360;48.152;-1.788;2024-01-30T04:23:58;103127.78;;;14.37;100.00
25430;BME280;13360;48.152;-1.788;2024-01-30T04:26:24;103124.72;;;14.39;100.00
25430;BME280;13360;48.152;-1.788;2024-01-30T04:28:50;103117.22;;;14.39;100.00
25430;BME280;13360;48.152;-1.788;2024-01-30T04:31:32;103093.56;;;14.37;100.00
25430;BME280;13360;48.152;-1.788;2024-01-30T04:33:58;103070.47;;;14.36;100.00
25430;BME280;13360;48.152;-1.788;2024-01-30T04:36:24;103048.50;;;14.34;100.00
25430;BME280;13360;48.152;-1.788;2024-01-30T04:38:50;103039.31;;;14.34;100.00
25430;BME280;13360;48.152;-1.788;2024-01-30T04:41:16;103035.16;;;14.37;100.00
25430;BME280;13360;48.152;-1.788;2024-01-30T04:43:42;103018.75;;;14.35;100.00
25430;BME280;13360;48.152;-1.788;2024-01-30T04:46:08;103009.56;;;14.34;100.00
25430;BME280;13360;48.152;-1.788;2024-01-30T04:48:34;103001.50;;;14.33;100.00
25430;BME280;13360;48.152;-1.788;2024-01-30T04:51:00;102991.75;;;14.30;100.00
25430;BME280;13360;48.152;-1.788;2024-01-30T04:53:29;102978.44;;;14.32;100.00
25430;BME280;13360;48.152;-1.788;2024-01-30T04:55:55;102980.38;;;14.32;100.00
25430;BME280;13360;48.152;-1.788;2024-01-30T04:58:21;102963.13;;;14.30;100.00
25430;BME280;13360;48.152;-1.788;2024-01-30T05:00:47;102950.03;;;14.25;100.00
25430;BME280;13360;48.152;-1.788;2024-01-30T05:03:17;102935.03;;;14.26;100.00
25430;BME280;13360;48.152;-1.788;2024-01-30T05:05:43;102912.78;;;14.26;100.00
25430;BME280;13360;48.152;-1.788;2024-01-30T05:08:09;102890.56;;;14.26;100.00
25430;BME280;13360;48.152;-1.788;2024-01-30T05:10:35;102881.94;;;14.28;100.00
25430;BME280;13360;48.152;-1.788;2024-01-30T05:13:01;102871.09;;;14.26;100.00
25430;BME280;13360;48.152;-1.788;2024-01-30T05:15:28;102866.91;;;14.24;100.00
25430;BME280;13360;48.152;-1.788;2024-01-30T05:17:54;102857.47;;;14.25;100.00
25430;BME280;13360;48.152;-1.788;2024-01-30T05:20:20;102861.09;;;14.25;100.00
25430;BME280;13360;48.152;-1.788;2024-01-30T05:22:46;102858.56;;;14.24;100.00
25430;BME280;13360;48.152;-1.788;2024-01-30T05:25:12;102854.13;;;14.23;100.00
25430;BME280;13360;48.152;-1.788;2024-01-30T05:27:38;102849.94;;;14.20;100.00
25430;BME280;13360;48.152;-1.788;2024-01-30T05:30:05;102854.66;;;14.20;100.00
25430;BME280;13360;48.152;-1.788;2024-01-30T05:32:31;102855.78;;;14.19;100.00
25430;BME280;13360;48.152;-1.788;2024-01-30T05:34:58;102848.53;;;14.18;100.00
25430;BME280;13360;48.152;-1.788;2024-01-30T05:37:24;102842.16;;;14.17;100.00
25430;BME280;13360;48.152;-1.788;2024-01-30T05:39:50;102848.53;;;14.18;100.00
25430;BME280;13360;48.152;-1.788;2024-01-30T05:42:16;102842.41;;;14.16;100.00
25430;BME280;13360;48.152;-1.788;2024-01-30T05:44:42;102833.22;;;14.15;100.00
25430;BME280;13360;48.152;-1.788;2024-01-30T05:47:08;102836.53;;;14.12;100.00
25430;BME280;13360;48.152;-1.788;2024-01-30T05:49:34;102824.59;;;14.12;100.00
25430;BME280;13360;48.152;-1.788;2024-01-30T05:52:02;102830.41;;;14.10;100.00
25430;BME280;13360;48.152;-1.788;2024-01-30T05:54:27;102827.66;;;14.10;100.00
25430;BME280;13360;48.152;-1.788;2024-01-30T05:56:53;102824.03;;;14.10;100.00
25430;BME280;13360;48.152;-1.788;2024-01-30T05:59:19;102821.78;;;14.07;100.00
25430;BME280;13360;48.152;-1.788;2024-01-30T06:01:46;102818.16;;;14.01;100.00
25430;BME280;13360;48.152;-1.788;2024-01-30T06:04:13;102812.59;;;14.01;100.00
25430;BME280;13360;48.152;-1.788;2024-01-30T06:06:39;102805.91;;;13.97;100.00
25430;BME280;13360;48.152;-1.788;2024-01-30T06:09:05;102808.97;;;13.95;100.00
25430;BME280;13360;48.152;-1.788;2024-01-30T06:11:31;102795.03;;;13.90;100.00
25430;BME280;13360;48.152;-1.788;2024-01-30T06:13:57;102785.00;;;13.84;100.00
25430;BME280;13360;48.152;-1.788;2024-01-30T06:16:23;102786.38;;;13.82;100.00
25430;BME280;13360;48.152;-1.788;2024-01-30T06:18:49;102774.16;;;13.78;100.00
25430;BME280;13360;48.152;-1.788;2024-01-30T06:21:15;102768.84;;;13.76;100.00
25430;BME280;13360;48.152;-1.788;2024-01-30T06:23:41;102766.09;;;13.76;100.00
25430;BME280;13360;48.152;-1.788;2024-01-30T06:26:07;102759.38;;;13.72;100.00
25430;BME280;13360;48.152;-1.788;2024-01-30T06:28:33;102759.63;;;13.70;100.00
25430;BME280;13360;48.152;-1.788;2024-01-30T06:31:00;102755.72;;;13.66;100.00
25430;BME280;13360;48.152;-1.788;2024-01-30T06:33:26;102753.22;;;13.65;100.00
25430;BME280;13360;48.152;-1.788;2024-01-30T06:35:52;102751.00;;;13.62;100.00
25430;BME280;13360;48.152;-1.788;2024-01-30T06:38:19;102751.25;;;13.60;100.00
25430;BME280;13360;48.152;-1.788;2024-01-30T06:40:45;102742.63;;;13.57;100.00
25430;BME280;13360;48.152;-1.788;2024-01-30T06:43:11;102738.19;;;13.56;100.00
25430;BME280;13360;48.152;-1.788;2024-01-30T06:45:37;102736.47;;;13.50;100.00
25430;BME280;13360;48.152;-1.788;2024-01-30T06:48:03;102728.41;;;13.48;100.00
25430;BME280;13360;48.152;-1.788;2024-01-30T06:50:30;102720.63;;;13.45;100.00
25430;BME280;13360;48.152;-1.788;2024-01-30T06:52:56;102723.09;;;13.41;100.00
25430;BME280;13360;48.152;-1.788;2024-01-30T06:55:22;102711.47;;;13.45;100.00
25430;BME280;13360;48.152;-1.788;2024-01-30T06:57:48;102710.91;;;13.42;100.00
25430;BME280;13360;48.152;-1.788;2024-01-30T07:00:14;102722.00;;;13.42;100.00
25430;BME280;13360;48.152;-1.788;2024-01-30T07:02:41;102710.31;;;13.35;100.00
25430;BME280;13360;48.152;-1.788;2024-01-30T07:05:08;102705.25;;;13.32;100.00
25430;BME280;13360;48.152;-1.788;2024-01-30T07:07:34;102710.81;;;13.32;100.00
25430;BME280;13360;48.152;-1.788;2024-01-30T07:10:00;102704.41;;;13.27;100.00
25430;BME280;13360;48.152;-1.788;2024-01-30T07:12:26;102710.78;;;13.27;100.00
25430;BME280;13360;48.152;-1.788;2024-01-30T07:14:52;102712.47;;;13.28;100.00
25430;BME280;13360;48.152;-1.788;2024-01-30T07:17:18;102712.72;;;13.27;100.00
25430;BME280;13360;48.152;-1.788;2024-01-30T07:19:44;102714.69;;;13.31;100.00
25430;BME280;13360;48.152;-1.788;2024-01-30T07:22:10;102716.38;;;13.32;100.00
25430;BME280;13360;48.152;-1.788;2024-01-30T07:24:36;102721.41;;;13.35;100.00
25430;BME280;13360;48.152;-1.788;2024-01-30T07:27:02;102724.44;;;13.34;100.00
25430;BME280;13360;48.152;-1.788;2024-01-30T07:29:28;102722.78;;;13.33;100.00
25430;BME280;13360;48.152;-1.788;2024-01-30T07:31:54;102723.84;;;13.32;100.00
25430;BME280;13360;48.152;-1.788;2024-01-30T07:34:20;102727.75;;;13.31;100.00
25430;BME280;13360;48.152;-1.788;2024-01-30T07:36:46;102745.22;;;13.31;100.00
25430;BME280;13360;48.152;-1.788;2024-01-30T07:39:12;102748.84;;;13.32;100.00
25430;BME280;13360;48.152;-1.788;2024-01-30T07:41:39;102758.25;;;13.31;100.00
25430;BME280;13360;48.152;-1.788;2024-01-30T07:44:05;102756.59;;;13.30;100.00
25430;BME280;13360;48.152;-1.788;2024-01-30T07:46:31;102763.81;;;13.31;100.00
25430;BME280;13360;48.152;-1.788;2024-01-30T07:48:57;102764.09;;;13.29;100.00
25430;BME280;13360;48.152;-1.788;2024-01-30T07:51:23;102773.50;;;13.28;100.00
25430;BME280;13360;48.152;-1.788;2024-01-30T07:53:53;102768.50;;;13.25;100.00
25430;BME280;13360;48.152;-1.788;2024-01-30T07:56:19;102773.47;;;13.23;100.00
25430;BME280;13360;48.152;-1.788;2024-01-30T07:58:45;102779.56;;;13.20;100.00
25430;BME280;13360;48.152;-1.788;2024-01-30T08:01:11;102776.72;;;13.15;100.00
25430;BME280;13360;48.152;-1.788;2024-01-30T08:03:37;102779.50;;;13.15;100.00
25430;BME280;13360;48.152;-1.788;2024-01-30T08:06:06;102775.56;;;13.11;100.00
25430;BME280;13360;48.152;-1.788;2024-01-30T08:08:32;102788.03;;;13.08;100.00
25430;BME280;13360;48.152;-1.788;2024-01-30T08:10:58;102786.03;;;13.04;100.00
25430;BME280;13360;48.152;-1.788;2024-01-30T08:13:24;102792.69;;;13.03;100.00
25430;BME280;13360;48.152;-1.788;2024-01-30T08:15:50;102785.47;;;13.02;100.00
25430;BME280;13360;48.152;-1.788;2024-01-30T08:18:16;102791.03;;;13.02;100.00
25430;BME280;13360;48.152;-1.788;2024-01-30T08:20:42;102789.34;;;13.01;100.00
25430;BME280;13360;48.152;-1.788;2024-01-30T08:23:08;102806.00;;;13.01;100.00
25430;BME280;13360;48.152;-1.788;2024-01-30T08:25:36;102812.38;;;13.01;100.00
25430;BME280;13360;48.152;-1.788;2024-01-30T08:28:02;102819.88;;;13.01;100.00
25430;BME280;13360;48.152;-1.788;2024-01-30T08:30:28;102819.03;;;13.00;100.00
25430;BME280;13360;48.152;-1.788;2024-01-30T08:32:54;102818.19;;;13.00;100.00
25430;BME280;13360;48.152;-1.788;2024-01-30T08:35:20;102823.75;;;13.00;100.00
25430;BME280;13360;48.152;-1.788;2024-01-30T08:37:46;102825.69;;;12.99;100.00
25430;BME280;13360;48.152;-1.788;2024-01-30T08:40:12;102829.28;;;13.00;100.00
25430;BME280;13360;48.152;-1.788;2024-01-30T08:42:39;102844.25;;;12.99;100.00
25430;BME280;13360;48.152;-1.788;2024-01-30T08:45:05;102845.09;;;12.99;100.00
25430;BME280;13360;48.152;-1.788;2024-01-30T08:47:32;102853.16;;;13.01;100.00
25430;BME280;13360;48.152;-1.788;2024-01-30T08:49:58;102865.94;;;13.02;100.00
25430;BME280;13360;48.152;-1.788;2024-01-30T08:52:24;102874.25;;;13.02;100.00
25430;BME280;13360;48.152;-1.788;2024-01-30T08:54:50;102885.34;;;13.02;100.00
25430;BME280;13360;48.152;-1.788;2024-01-30T08:57:16;102890.91;;;13.02;100.00
25430;BME280;13360;48.152;-1.788;2024-01-30T08:59:43;102906.75;;;13.06;100.00
25430;BME280;13360;48.152;-1.788;2024-01-30T09:02:11;102916.84;;;13.12;100.00
25430;BME280;13360;48.152;-1.788;2024-01-30T09:04:38;102918.06;;;13.22;100.00
25430;BME280;13360;48.152;-1.788;2024-01-30T09:07:06;102921.75;;;13.32;100.00
25430;BME280;13360;48.152;-1.788;2024-01-30T09:09:34;102932.72;;;13.44;100.00
25430;BME280;13360;48.152;-1.788;2024-01-30T09:12:00;102934.22;;;13.57;100.00
25430;BME280;13360;48.152;-1.788;2024-01-30T09:14:32;102932.63;;;13.66;100.00
25430;BME280;13360;48.152;-1.788;2024-01-30T09:16:58;102927.94;;;13.71;100.00
25430;BME280;13360;48.152;-1.788;2024-01-30T09:19:24;102930.59;;;13.88;100.00
25430;BME280;13360;48.152;-1.788;2024-01-30T09:21:50;102939.03;;;14.03;100.00
25430;BME280;13360;48.152;-1.788;2024-01-30T09:24:16;102929.09;;;14.13;100.00
25430;BME280;13360;48.152;-1.788;2024-01-30T09:26:42;102917.78;;;14.24;100.00
25430;BME280;13360;48.152;-1.788;2024-01-30T09:29:08;102904.53;;;14.42;100.00
25430;BME280;13360;48.152;-1.788;2024-01-30T09:31:34;102894.34;;;14.57;100.00
25430;BME280;13360;48.152;-1.788;2024-01-30T09:34:00;102874.91;;;14.68;100.00
25430;BME280;13360;48.152;-1.788;2024-01-30T09:36:26;102874.97;;;14.88;100.00
25430;BME280;13360;48.152;-1.788;2024-01-30T09:38:53;102868.03;;;14.95;100.00
25430;BME280;13360;48.152;-1.788;2024-01-30T09:41:19;102875.25;;;14.86;100.00
25430;BME280;13360;48.152;-1.788;2024-01-30T09:43:47;102880.59;;;15.08;100.00
25430;BME280;13360;48.152;-1.788;2024-01-30T09:46:14;102877.28;;;15.21;100.00
25430;BME280;13360;48.152;-1.788;2024-01-30T09:48:42;102881.19;;;15.36;100.00
25430;BME280;13360;48.152;-1.788;2024-01-30T09:51:11;102873.13;;;15.24;100.00
25430;BME280;13360;48.152;-1.788;2024-01-30T09:53:39;102878.16;;;15.42;100.00
25430;BME280;13360;48.152;-1.788;2024-01-30T09:56:06;102868.94;;;15.57;100.00
25430;BME280;13360;48.152;-1.788;2024-01-30T09:58:33;102868.97;;;15.67;100.00
25430;BME280;13360;48.152;-1.788;2024-01-30T10:00:59;102880.38;;;15.61;100.00
25430;BME280;13360;48.152;-1.788;2024-01-30T10:03:25;102879.56;;;15.65;100.00
25430;BME280;13360;48.152;-1.788;2024-01-30T10:05:52;102872.31;;;15.74;100.00
25430;BME280;13360;48.152;-1.788;2024-01-30T10:08:18;102876.50;;;15.72;100.00
25430;BME280;13360;48.152;-1.788;2024-01-30T10:10:49;102878.16;;;15.68;100.00
25430;BME280;13360;48.152;-1.788;2024-01-30T10:13:15;102880.91;;;15.57;100.00
25430;BME280;13360;48.152;-1.788;2024-01-30T10:15:41;102883.72;;;15.52;100.00
25430;BME280;13360;48.152;-1.788;2024-01-30T10:18:10;102877.59;;;15.45;100.00
25430;BME280;13360;48.152;-1.788;2024-01-30T10:20:37;102882.56;;;15.33;100.00
25430;BME280;13360;48.152;-1.788;2024-01-30T10:23:03;102890.94;;;15.33;100.00
25430;BME280;13360;48.152;-1.788;2024-01-30T10:25:32;102899.00;;;15.35;100.00
25430;BME280;13360;48.152;-1.788;2024-01-30T10:28:15;102913.47;;;15.37;100.00
25430;BME280;13360;48.152;-1.788;2024-01-30T10:30:41;102928.53;;;15.36;100.00
25430;BME280;13360;48.152;-1.788;2024-01-30T10:33:07;102923.50;;;15.33;100.00
25430;BME280;13360;48.152;-1.788;2024-01-30T10:35:33;102920.44;;;15.29;100.00
25430;BME280;13360;48.152;-1.788;2024-01-30T10:37:59;102916.81;;;15.29;100.00
25430;BME280;13360;48.152;-1.788;2024-01-30T10:40:28;102935.19;;;15.30;100.00
25430;BME280;13360;48.152;-1.788;2024-01-30T10:42:55;102949.13;;;15.30;100.00
25430;BME280;13360;48.152;-1.788;2024-01-30T10:45:21;102959.69;;;15.28;100.00
25430;BME280;13360;48.152;-1.788;2024-01-30T10:47:52;102969.16;;;15.27;100.00
25430;BME280;13360;48.152;-1.788;2024-01-30T10:50:18;102965.81;;;15.24;100.00
25430;BME280;13360;48.152;-1.788;2024-01-30T10:52:45;102973.91;;;15.26;100.00
25430;BME280;13360;48.152;-1.788;2024-01-30T10:55:12;102985.09;;;15.46;100.00
25430;BME280;13360;48.152;-1.788;2024-01-30T10:57:39;102990.38;;;15.53;100.00
25430;BME280;13360;48.152;-1.788;2024-01-30T11:00:09;102973.38;;;15.44;100.00
25430;BME280;13360;48.152;-1.788;2024-01-30T11:02:40;102960.84;;;15.42;100.00
25430;BME280;13360;48.152;-1.788;2024-01-30T11:05:07;102950.56;;;15.42;100.00
25430;BME280;13360;48.152;-1.788;2024-01-30T11:07:34;102948.00;;;15.41;100.00
25430;BME280;13360;48.152;-1.788;2024-01-30T11:12:29;102945.81;;;15.43;100.00
25430;BME280;13360;48.152;-1.788;2024-01-30T11:20:15;102937.44;;;15.38;100.00
25430;BME280;13360;48.152;-1.788;2024-01-30T11:22:42;102944.66;;;15.39;100.00
25430;BME280;13360;48.152;-1.788;2024-01-30T11:25:13;102940.25;;;15.43;100.00
25430;BME280;13360;48.152;-1.788;2024-01-30T11:27:39;102956.41;;;15.51;100.00
25430;BME280;13360;48.152;-1.788;2024-01-30T11:30:05;102961.97;;;15.56;100.00
25430;BME280;13360;48.152;-1.788;2024-01-30T11:32:33;102940.81;;;15.50;100.00
25430;BME280;13360;48.152;-1.788;2024-01-30T11:34:59;102944.69;;;15.49;100.00
25430;BME280;13360;48.152;-1.788;2024-01-30T11:37:25;102939.94;;;15.39;100.00
25430;BME280;13360;48.152;-1.788;2024-01-30T11:39:53;102940.78;;;15.40;100.00
25430;BME280;13360;48.152;-1.788;2024-01-30T11:42:19;102941.91;;;15.44;100.00
25430;BME280;13360;48.152;-1.788;2024-01-30T11:44:47;102948.03;;;15.51;100.00
25430;BME280;13360;48.152;-1.788;2024-01-30T11:47:14;102929.09;;;15.43;100.00
25430;BME280;13360;48.152;-1.788;2024-01-30T11:49:40;102931.31;;;15.41;100.00
25430;BME280;13360;48.152;-1.788;2024-01-30T11:52:06;102926.00;;;15.39;100.00
25430;BME280;13360;48.152;-1.788;2024-01-30T11:54:32;102929.09;;;15.43;100.00
25430;BME280;13360;48.152;-1.788;2024-01-30T11:56:59;102931.06;;;15.42;100.00
25430;BME280;13360;48.152;-1.788;2024-01-30T11:59:25;102929.94;;;15.43;100.00
25430;BME280;13360;48.152;-1.788;2024-01-30T12:01:54;102921.88;;;15.47;100.00
25430;BME280;13360;48.152;-1.788;2024-01-30T12:04:20;102933.00;;;15.47;100.00
25430;BME280;13360;48.152;-1.788;2024-01-30T12:06:46;102918.25;;;15.46;100.00
25430;BME280;13360;48.152;-1.788;2024-01-30T12:09:16;102917.69;;;15.49;100.00
25430;BME280;13360;48.152;-1.788;2024-01-30T12:11:43;102916.84;;;15.49;100.00
25430;BME280;13360;48.152;-1.788;2024-01-30T12:14:09;102906.25;;;15.51;100.00
25430;BME280;13360;48.152;-1.788;2024-01-30T12:16:36;102909.06;;;15.51;100.00
25430;BME280;13360;48.152;-1.788;2024-01-30T12:19:02;102899.59;;;15.52;100.00
25430;BME280;13360;48.152;-1.788;2024-01-30T12:21:29;102894.28;;;15.50;100.00
25430;BME280;13360;48.152;-1.788;2024-01-30T12:23:56;102900.13;;;15.49;100.00
25430;BME280;13360;48.152;-1.788;2024-01-30T12:26:22;102892.63;;;15.54;100.00
25430;BME280;13360;48.152;-1.788;2024-01-30T12:28:48;102888.19;;;15.59;100.00
25430;BME280;13360;48.152;-1.788;2024-01-30T12:31:34;102886.78;;;15.51;100.00
25430;BME280;13360;48.152;-1.788;2024-01-30T12:34:00;102886.78;;;15.51;100.00